Weather History for Fort Meade, MD

Change the Weather History Date:

Thursday, March 14, 2013

  Actual Average (KBWI) Record (KBWI)
Temperature  
Mean Temperature 38 °F 43 °F  
Max Temperature 44 °F 53 °F 83 °F (2007)
Min Temperature 32 °F 33 °F 14 °F (1888)
Degree Days  
Heating Degree Days 27 22  
Month to date heating degree days 338  
Since 1 July heating degree days 3933  
Cooling Degree Days 0 0  
Month to date cooling degree days 0  
Year to date cooling degree days 0  
Moisture  
Dew Point 16 °F    
Average Humidity 44    
Maximum Humidity 60    
Minimum Humidity 27    
Precipitation  
Precipitation 0.00 in 0.13 in 1.82 in (1940)
Month to date precipitation 1.63  
Year to date precipitation 7.58  
Snow  
Snow 0.00 in 0.00 in 5.80 in (1937)
Month to date snowfall 1.3  
Since 1 July snowfall 19.5  
Snow Depth -    
Sea Level Pressure  
Sea Level Pressure 30.08 in    
Wind  
Wind Speed 13 mph (WNW)    
Max Wind Speed 24 mph    
Max Gust Speed 34 mph    
Visibility 10 miles    
Events      
T = Trace of Precipitation, MM = Missing Value Source: NWS Daily Summary

Daily Weather History Graph

Daily Weather History Graph

Search for Another Location

Airport:

Trip Planner

Search our weather history database for the weather conditions in past years. The results will help you decide how hot, cold, wet, or windy it might be!

Date:

Astronomy

Mar. 14, 2013 Rise Set
Actual Time 7:19 AM EDT 7:13 PM EDT
Civil Twilight 6:52 AM EDT 7:39 PM EDT
Nautical Twilight 6:21 AM EDT 8:10 PM EDT
Astronomical Twilight 5:50 AM EDT 8:42 PM EDT
Moon 8:33 AM EDT (3/14) 10:25 PM EDT (3/14)
Length of Visible Light 12h 46m
Length of Day
11h 53m
Waxing Crescent, 9% of the Moon is Illuminated
Mar 14
Waxing Crescent
Mar 19
First Quarter
Mar 27
Full
Apr 3
Last Quarter
Apr 10
New

Hourly Weather History & Observations

Time (EDT) Temp. Windchill Dew Point Humidity Pressure Visibility Wind Dir Wind Speed Gust Speed Precip Events Conditions
12:03 AM 33.8 °F 23.5 °F 19.4 °F 56% 30.08 in 10.0 mi WNW 16.1 mph 24.2 mph N/A   Clear
12:24 AM 32.0 °F 22.1 °F 19.4 °F 60% 30.08 in 10.0 mi WNW 13.8 mph 19.6 mph N/A   Scattered Clouds
12:45 AM 32.0 °F 22.1 °F 19.4 °F 60% 30.08 in 10.0 mi WNW 13.8 mph 20.7 mph N/A   Clear
1:03 AM 32.0 °F 24.8 °F 17.6 °F 55% 30.08 in 10.0 mi West 8.1 mph 20.7 mph N/A   Scattered Clouds
1:24 AM 32.0 °F 23.6 °F 19.4 °F 60% 30.08 in 10.0 mi West 10.4 mph - N/A   Mostly Cloudy
2:06 AM 33.8 °F 25.3 °F 17.6 °F 52% 30.08 in 10.0 mi West 11.5 mph 18.4 mph N/A   Overcast
2:24 AM 32.0 °F 22.1 °F 17.6 °F 55% 30.08 in 10.0 mi WNW 13.8 mph 23.0 mph N/A   Scattered Clouds
2:45 AM 32.0 °F 24.2 °F 17.6 °F 55% 30.08 in 10.0 mi WNW 9.2 mph 17.3 mph N/A   Clear
3:06 AM 32.0 °F 22.5 °F 15.8 °F 51% 30.08 in 10.0 mi West 12.7 mph 16.1 mph N/A   Clear
3:24 AM 32.0 °F 27.5 °F 17.6 °F 55% 30.08 in 10.0 mi West 4.6 mph - N/A   Mostly Cloudy
3:45 AM 32.0 °F 26.4 °F 19.4 °F 60% 30.08 in 10.0 mi West 5.8 mph - N/A   Overcast
4:06 AM 32.0 °F 25.6 °F 19.4 °F 60% 30.08 in 10.0 mi WNW 6.9 mph - N/A   Mostly Cloudy
4:24 AM 32.0 °F 24.2 °F 19.4 °F 60% 30.08 in 10.0 mi WNW 9.2 mph - N/A   Scattered Clouds
4:45 AM 32.0 °F 25.6 °F 19.4 °F 60% 30.07 in 10.0 mi West 6.9 mph - N/A   Clear
5:06 AM 32.0 °F 24.2 °F 19.4 °F 60% 30.07 in 10.0 mi West 9.2 mph - N/A   Clear
5:24 AM 32.0 °F 22.5 °F 19.4 °F 60% 30.07 in 10.0 mi WNW 12.7 mph 19.6 mph N/A   Clear
5:45 AM 32.0 °F 24.2 °F 17.6 °F 55% 30.08 in 10.0 mi West 9.2 mph 17.3 mph N/A   Clear
6:06 AM 32.0 °F 25.6 °F 17.6 °F 55% 30.08 in 10.0 mi West 6.9 mph - N/A   Clear
6:24 AM 32.0 °F 22.1 °F 17.6 °F 55% 30.09 in 10.0 mi West 13.8 mph 20.7 mph N/A   Clear
6:45 AM 32.0 °F 23.0 °F 17.6 °F 55% 30.09 in 10.0 mi WNW 11.5 mph 21.9 mph N/A   Clear
7:06 AM 32.0 °F 23.0 °F 17.6 °F 55% 30.10 in 10.0 mi WNW 11.5 mph 21.9 mph N/A   Clear
7:24 AM 32.0 °F 24.8 °F 17.6 °F 55% 30.11 in 10.0 mi WNW 8.1 mph - N/A   Scattered Clouds
7:45 AM 32.0 °F 23.0 °F 15.8 °F 51% 30.11 in 10.0 mi WNW 11.5 mph 17.3 mph N/A   Clear
8:06 AM 32.0 °F 22.1 °F 17.6 °F 55% 30.12 in 10.0 mi WNW 13.8 mph 25.3 mph N/A   Clear
8:24 AM 32.0 °F 23.0 °F 17.6 °F 55% 30.13 in 10.0 mi WNW 11.5 mph 17.3 mph N/A   Scattered Clouds
8:45 AM 32.0 °F 21.6 °F 17.6 °F 55% 30.13 in 10.0 mi WNW 15.0 mph 21.9 mph N/A   Clear
9:06 AM 33.8 °F 25.3 °F 15.8 °F 48% 30.13 in 10.0 mi WNW 11.5 mph 20.7 mph N/A   Scattered Clouds
9:24 AM 35.6 °F 25.2 °F 15.8 °F 44% 30.13 in 10.0 mi WNW 18.4 mph 28.8 mph N/A   Scattered Clouds
9:45 AM 35.6 °F 24.8 °F 15.8 °F 44% 30.13 in 10.0 mi NW 19.6 mph 25.3 mph N/A   Scattered Clouds
10:06 AM 35.6 °F 24.8 °F 14.0 °F 41% 30.14 in 10.0 mi WNW 19.6 mph 28.8 mph N/A   Clear
10:24 AM 37.4 °F 26.9 °F 14.0 °F 38% 30.13 in 10.0 mi WNW 20.7 mph 27.6 mph N/A   Scattered Clouds
10:45 AM 37.4 °F 28.9 °F 15.8 °F 41% 30.13 in 10.0 mi NW 13.8 mph 25.3 mph N/A   Scattered Clouds
11:06 AM 37.4 °F 26.9 °F 14.0 °F 38% 30.12 in 10.0 mi WNW 20.7 mph 29.9 mph N/A   Scattered Clouds
11:27 AM 39.2 °F 28.5 °F 14.0 °F 36% 30.12 in 10.0 mi WNW 24.2 mph 27.6 mph N/A   Clear
12:06 PM 39.2 °F 29.6 °F 14.0 °F 36% 30.11 in 10.0 mi West 19.6 mph 25.3 mph N/A   Scattered Clouds
12:27 PM 41.0 °F 32.5 °F 14.0 °F 33% 30.10 in 10.0 mi WNW 17.3 mph 27.6 mph N/A   Scattered Clouds
1:06 PM 42.8 °F 34.5 °F 14.0 °F 31% 30.09 in 10.0 mi WNW 18.4 mph 34.5 mph N/A   Scattered Clouds
1:27 PM 42.8 °F 35.8 °F 15.8 °F 34% 30.08 in 10.0 mi WNW 13.8 mph 23.0 mph N/A   Scattered Clouds
1:45 PM 42.8 °F 35.4 °F 15.8 °F 34% 30.08 in 10.0 mi West 15.0 mph 24.2 mph N/A   Scattered Clouds
2:06 PM 42.8 °F 34.0 °F 14.0 °F 31% 30.07 in 10.0 mi West 20.7 mph 29.9 mph N/A   Scattered Clouds
2:27 PM 44.6 °F 36.4 °F 14.0 °F 29% 30.06 in 10.0 mi WNW 20.7 mph 29.9 mph N/A   Clear
2:45 PM 44.6 °F 36.9 °F 12.2 °F 27% 30.06 in 10.0 mi West 18.4 mph 31.1 mph N/A   Clear
3:06 PM 44.6 °F 36.6 °F 12.2 °F 27% 30.04 in 10.0 mi WNW 19.6 mph 31.1 mph N/A   Clear
3:27 PM 44.6 °F 37.2 °F 14.0 °F 29% 30.04 in 10.0 mi WNW 17.3 mph 27.6 mph N/A   Clear
3:45 PM 44.6 °F 36.6 °F 12.2 °F 27% 30.04 in 10.0 mi WNW 19.6 mph 31.1 mph N/A   Clear
4:06 PM 44.6 °F 36.6 °F 14.0 °F 29% 30.04 in 10.0 mi WNW 19.6 mph 28.8 mph N/A   Clear
4:27 PM 44.6 °F 36.6 °F 12.2 °F 27% 30.04 in 10.0 mi WNW 19.6 mph 29.9 mph N/A   Clear
4:45 PM 44.6 °F 36.4 °F 14.0 °F 29% 30.04 in 10.0 mi NW 20.7 mph 28.8 mph N/A   Clear
5:06 PM 42.8 °F 33.3 °F 12.2 °F 29% 30.04 in 10.0 mi WNW 24.2 mph 33.4 mph N/A   Clear
5:27 PM 42.8 °F 34.5 °F 12.2 °F 29% 30.03 in 10.0 mi West 18.4 mph 28.8 mph N/A   Clear
6:06 PM 41.0 °F 33.5 °F 12.2 °F 31% 30.04 in 10.0 mi WNW 13.8 mph 24.2 mph N/A   Clear
6:27 PM 41.0 °F 32.5 °F 12.2 °F 31% 30.04 in 10.0 mi WNW 17.3 mph 26.5 mph N/A   Clear
6:48 PM 41.0 °F 31.6 °F 12.2 °F 31% 30.05 in 10.0 mi WNW 20.7 mph 28.8 mph N/A   Clear
7:06 PM 39.2 °F 31.6 °F 12.2 °F 33% 30.06 in 10.0 mi WNW 12.7 mph 21.9 mph N/A   Clear
7:27 PM 39.2 °F 32.5 °F 12.2 °F 33% 30.07 in 10.0 mi WNW 10.4 mph 23.0 mph N/A   Clear
7:48 PM 37.4 °F 31.4 °F 14.0 °F 38% 30.07 in 10.0 mi WNW 8.1 mph 19.6 mph N/A   Clear
8:06 PM 37.4 °F 30.8 °F 14.0 °F 38% 30.08 in 10.0 mi WNW 9.2 mph - N/A   Clear
8:27 PM 35.6 °F 30.7 °F 14.0 °F 41% 30.08 in 10.0 mi West 5.8 mph - N/A   Clear
8:48 PM 35.6 °F 29.2 °F 14.0 °F 41% 30.08 in 10.0 mi WNW 8.1 mph - N/A   Clear
9:06 PM 35.6 °F 28.6 °F 14.0 °F 41% 30.08 in 10.0 mi WNW 9.2 mph - N/A   Clear
9:27 PM 35.6 °F 28.0 °F 14.0 °F 41% 30.08 in 10.0 mi West 10.4 mph - N/A   Clear
9:48 PM 35.6 °F 29.2 °F 14.0 °F 41% 30.09 in 10.0 mi WNW 8.1 mph - N/A   Clear
10:06 PM 35.6 °F 29.9 °F 14.0 °F 41% 30.09 in 10.0 mi WNW 6.9 mph - N/A   Clear
10:48 PM 35.6 °F 28.0 °F 15.8 °F 44% 30.10 in 10.0 mi WNW 10.4 mph - N/A   Clear
11:06 PM 33.8 °F 27.0 °F 15.8 °F 48% 30.09 in 10.0 mi WNW 8.1 mph - N/A   Clear
11:27 PM 33.8 °F 27.7 °F 17.6 °F 52% 30.10 in 10.0 mi WNW 6.9 mph - N/A   Clear
11:48 PM 33.8 °F 28.6 °F 17.6 °F 52% 30.10 in 10.0 mi WNW 5.8 mph - N/A   Clear